This is the latest recevied weather packets stored in our database for station/object CA3EAP-13. If no packets are shown the sender has not sent any weather packets the latest 10 day(s).
| Time | Temp. | Humidity | Pressure | Rain* | Wind** | Luminosity | Snow |
|---|---|---|---|---|---|---|---|
| 1777822505 | 21.67° C | 39% | 1014.7 hPa | - | - | - | - |
| 1777815905 | 19.44° C | 42% | 1015.5 hPa | - | - | - | - |
| 1777813505 | 17.78° C | 49% | 1016.2 hPa | - | - | - | - |
| 1777800905 | 16.67° C | 54% | 1014.7 hPa | - | - | - | - |
| 1777800304 | 16.67° C | 54% | 1014.8 hPa | - | - | - | - |
| 1777799704 | 16.67° C | 54% | 1014.7 hPa | - | - | - | - |
| 1777798505 | 17.22° C | 51% | 1014.3 hPa | - | - | - | - |
| 1777797304 | 17.22° C | 53% | 1014.7 hPa | - | - | - | - |
| 1777796704 | 17.22° C | 52% | 1014.7 hPa | - | - | - | - |
| 1777796104 | 17.22° C | 52% | 1014.8 hPa | - | - | - | - |
| 1777795504 | 17.22° C | 52% | 1015.3 hPa | - | - | - | - |
| 1777794905 | 17.22° C | 52% | 1015.2 hPa | - | - | - | - |
| 1777793704 | 17.22° C | 52% | 1015.6 hPa | - | - | - | - |
| 1777793105 | 17.22° C | 52% | 1015.6 hPa | - | - | - | - |
| 1777792504 | 17.78° C | 53% | 1015.8 hPa | - | - | - | - |
| 1777791904 | 17.22° C | 54% | 1015.6 hPa | - | - | - | - |
| 1777791304 | 17.78° C | 53% | 1015.3 hPa | - | - | - | - |
| 1777790705 | 17.78° C | 54% | 1015.1 hPa | - | - | - | - |
| 1777790104 | 17.78° C | 53% | 1015.2 hPa | - | - | - | - |
| 1777789504 | 17.78° C | 53% | 1015.1 hPa | - | - | - | - |
| 1777788904 | 17.78° C | 53% | 1015 hPa | - | - | - | - |
| 1777788304 | 17.78° C | 53% | 1014.8 hPa | - | - | - | - |
| 1777787704 | 17.78° C | 53% | 1014.7 hPa | - | - | - | - |
| 1777787105 | 17.78° C | 53% | 1014.7 hPa | - | - | - | - |
| 1777786504 | 18.33° C | 52% | 1014.5 hPa | - | - | - | - |
* Rain since midnight (hover to see other rain measurements)
** Current wind speed in m/s (hover to see current wind gust speed)